createdAt,value
2023-01-17T00:00:08.470Z,1.80
2023-01-17T00:02:36.281Z,1.97
2023-01-17T00:05:21.923Z,1.87
2023-01-17T00:08:07.730Z,1.97
2023-01-17T00:10:35.751Z,1.83
2023-01-17T00:13:04.991Z,1.70
2023-01-17T00:15:33.131Z,1.93
2023-01-17T00:18:01.135Z,2.13
2023-01-17T00:20:47.760Z,2.30
2023-01-17T00:23:34.893Z,2.50
2023-01-17T00:26:05.468Z,2.43
2023-01-17T00:28:35.625Z,1.90
2023-01-17T00:31:03.085Z,1.70
2023-01-17T00:33:30.057Z,1.90
2023-01-17T00:35:58.082Z,1.73
2023-01-17T00:38:26.739Z,2.20
2023-01-17T00:40:53.738Z,1.97
2023-01-17T00:43:40.978Z,1.93
2023-01-17T00:46:27.609Z,1.90
2023-01-17T00:49:13.456Z,1.90
2023-01-17T00:51:58.656Z,1.80
2023-01-17T00:54:44.440Z,2.17
2023-01-17T00:57:29.666Z,2.00
2023-01-17T01:00:14.959Z,2.07
2023-01-17T01:03:02.124Z,2.30
2023-01-17T01:05:50.006Z,2.13
2023-01-17T01:08:37.687Z,2.13
2023-01-17T01:11:25.082Z,2.23
2023-01-17T01:14:10.332Z,1.87
2023-01-17T01:16:55.718Z,1.70
2023-01-17T01:19:42.876Z,2.20
2023-01-17T01:22:28.042Z,1.60
2023-01-17T01:25:13.440Z,1.70
2023-01-17T01:27:58.573Z,1.90
2023-01-17T01:30:43.899Z,1.97
2023-01-17T01:33:21.629Z,1.50
2023-01-17T01:35:52.499Z,1.80
2023-01-17T01:38:21.661Z,1.83
2023-01-17T01:40:51.990Z,1.50
2023-01-17T01:43:21.632Z,2.50
2023-01-17T01:45:52.288Z,1.80
2023-01-17T01:48:27.895Z,1.77
2023-01-17T01:50:57.136Z,2.10
2023-01-17T01:53:25.803Z,1.80
2023-01-17T01:55:56.768Z,2.17
2023-01-17T01:58:26.588Z,2.20
2023-01-17T02:00:54.551Z,1.63
2023-01-17T02:03:24.460Z,1.77
2023-01-17T02:05:52.793Z,2.03
2023-01-17T02:08:24.128Z,1.90
2023-01-17T02:10:52.113Z,2.30
2023-01-17T02:13:21.416Z,1.80
2023-01-17T02:15:58.804Z,2.37
2023-01-17T02:18:35.226Z,2.27
2023-01-17T02:21:16.288Z,2.17
2023-01-17T02:24:16.359Z,2.50
2023-01-17T02:26:53.429Z,2.13
2023-01-17T02:29:56.985Z,2.40
2023-01-17T02:32:31.033Z,2.30
2023-01-17T02:35:03.188Z,2.20
2023-01-17T02:37:35.706Z,2.10
2023-01-17T02:40:07.385Z,2.20
2023-01-17T02:42:39.050Z,1.97
2023-01-17T02:45:08.776Z,1.50
2023-01-17T02:47:38.166Z,2.40
2023-01-17T02:50:09.410Z,2.57
2023-01-17T02:52:50.748Z,2.43
2023-01-17T02:55:28.238Z,2.30
2023-01-17T02:58:06.907Z,2.73
2023-01-17T03:00:41.621Z,2.23
2023-01-17T03:03:15.231Z,2.30
2023-01-17T03:05:45.448Z,2.90
2023-01-17T03:08:13.842Z,2.00
2023-01-17T03:10:42.857Z,2.53
2023-01-17T03:13:10.802Z,2.17
2023-01-17T03:15:39.812Z,2.90
2023-01-17T03:18:12.617Z,2.60
2023-01-17T03:20:40.459Z,2.40
2023-01-17T03:23:08.897Z,2.60
2023-01-17T03:25:36.795Z,2.43
2023-01-17T03:28:05.117Z,2.50
2023-01-17T03:30:32.993Z,3.03
2023-01-17T03:33:00.830Z,1.80
2023-01-17T03:35:30.044Z,2.60
2023-01-17T03:37:57.944Z,3.20
2023-01-17T03:40:25.786Z,2.50
2023-01-17T03:42:53.631Z,2.53
2023-01-17T03:45:22.010Z,2.43
2023-01-17T03:47:49.879Z,2.60
2023-01-17T03:50:18.248Z,2.30
2023-01-17T03:52:47.462Z,2.60
2023-01-17T03:55:15.374Z,2.73
2023-01-17T03:57:43.208Z,3.13
2023-01-17T04:00:12.260Z,2.40
2023-01-17T04:02:40.162Z,3.00
2023-01-17T04:05:08.645Z,2.70
2023-01-17T04:07:36.490Z,3.20
2023-01-17T04:10:06.842Z,2.40
2023-01-17T04:12:34.707Z,3.57
2023-01-17T04:15:02.552Z,3.00
2023-01-17T04:17:30.384Z,3.10
2023-01-17T04:19:58.281Z,2.63
2023-01-17T04:22:26.094Z,2.90
2023-01-17T04:24:54.081Z,2.50
2023-01-17T04:27:23.289Z,2.87
2023-01-17T04:29:51.145Z,3.40
2023-01-17T04:32:19.376Z,2.90
2023-01-17T04:34:47.194Z,3.77
2023-01-17T04:37:15.142Z,3.33
2023-01-17T04:39:42.965Z,2.93
2023-01-17T04:42:10.831Z,3.57
2023-01-17T04:44:40.071Z,2.40
2023-01-17T04:47:07.993Z,3.10
2023-01-17T04:49:35.819Z,3.10
2023-01-17T04:52:03.704Z,2.90
2023-01-17T04:54:31.616Z,2.83
2023-01-17T04:56:59.459Z,2.67
2023-01-17T04:59:27.290Z,3.43
2023-01-17T05:01:56.535Z,2.90
2023-01-17T05:04:24.474Z,3.37
2023-01-17T05:06:52.323Z,3.43
2023-01-17T05:09:20.156Z,2.97
2023-01-17T05:11:47.982Z,2.60
2023-01-17T05:14:15.834Z,3.07
2023-01-17T05:16:43.689Z,2.77
2023-01-17T05:19:12.988Z,3.07
2023-01-17T05:21:40.874Z,2.93
2023-01-17T05:24:08.883Z,2.87
2023-01-17T05:26:36.710Z,2.60
2023-01-17T05:29:04.574Z,3.20
2023-01-17T05:31:32.434Z,2.73
2023-01-17T05:34:00.738Z,2.80
2023-01-17T05:36:30.013Z,2.63
2023-01-17T05:38:58.613Z,2.80
2023-01-17T05:41:26.502Z,3.13
2023-01-17T05:43:54.302Z,2.90
2023-01-17T05:46:22.277Z,2.83
2023-01-17T05:48:50.181Z,3.73
2023-01-17T05:51:18.060Z,2.63
2023-01-17T05:53:47.262Z,3.10
2023-01-17T05:56:15.135Z,3.67
2023-01-17T05:58:42.952Z,3.70
2023-01-17T06:01:11.188Z,3.97
2023-01-17T06:03:39.047Z,3.97
2023-01-17T06:06:07.366Z,3.77
2023-01-17T06:08:35.230Z,3.90
2023-01-17T06:11:07.602Z,4.30
2023-01-17T06:13:35.436Z,4.03
2023-01-17T06:16:04.228Z,3.87
2023-01-17T06:18:32.496Z,4.43
2023-01-17T06:21:00.411Z,5.00
2023-01-17T06:23:28.328Z,4.80
2023-01-17T06:25:56.227Z,5.10
2023-01-17T06:28:25.510Z,4.80
2023-01-17T06:30:53.431Z,5.03
2023-01-17T06:33:21.300Z,4.70
2023-01-17T06:35:50.059Z,4.63
2023-01-17T06:38:17.944Z,5.27
2023-01-17T06:40:45.872Z,4.77
2023-01-17T06:43:13.704Z,4.87
2023-01-17T06:45:45.667Z,4.27
2023-01-17T06:48:13.742Z,4.60
2023-01-17T06:50:42.030Z,4.93
2023-01-17T06:53:09.855Z,4.80
2023-01-17T06:55:40.225Z,4.10
2023-01-17T06:58:08.127Z,4.70
2023-01-17T07:00:36.799Z,4.60
2023-01-17T07:03:08.407Z,4.67
2023-01-17T07:05:36.324Z,4.30
2023-01-17T07:08:04.357Z,4.50
2023-01-17T07:10:32.220Z,4.47
2023-01-17T07:13:01.100Z,4.97
2023-01-17T07:15:29.216Z,4.70
2023-01-17T07:17:57.043Z,4.70
2023-01-17T07:20:26.428Z,4.40
2023-01-17T07:22:54.809Z,4.30
2023-01-17T07:25:22.693Z,4.67
2023-01-17T07:27:54.301Z,4.57
2023-01-17T07:30:22.257Z,4.77
2023-01-17T07:32:52.973Z,5.03
2023-01-17T07:35:21.582Z,4.93
2023-01-17T07:37:51.347Z,4.50
2023-01-17T07:40:20.241Z,4.60
2023-01-17T07:42:48.319Z,5.00
2023-01-17T07:45:17.315Z,5.13
2023-01-17T07:47:45.609Z,5.20
2023-01-17T07:50:14.223Z,4.20
2023-01-17T07:52:42.596Z,5.60
2023-01-17T07:55:12.012Z,4.90
2023-01-17T07:57:40.046Z,5.03
2023-01-17T08:00:09.595Z,5.13
2023-01-17T08:02:43.346Z,4.73
2023-01-17T08:05:11.219Z,5.30
2023-01-17T08:07:39.083Z,5.30
2023-01-17T08:10:08.788Z,6.03
2023-01-17T08:12:38.668Z,5.30
2023-01-17T08:15:07.631Z,5.33
2023-01-17T08:17:35.513Z,5.10
2023-01-17T08:20:03.655Z,5.40
2023-01-17T08:22:31.753Z,5.20
2023-01-17T08:24:59.652Z,5.53
2023-01-17T08:27:27.566Z,6.07
2023-01-17T08:29:56.821Z,5.50
2023-01-17T08:32:24.716Z,5.67
2023-01-17T08:34:52.532Z,5.40
2023-01-17T08:37:20.423Z,5.03
2023-01-17T08:39:48.673Z,4.80
2023-01-17T08:42:16.820Z,4.80
2023-01-17T08:44:44.731Z,4.80
2023-01-17T08:47:13.994Z,4.30
2023-01-17T08:49:41.955Z,4.93
2023-01-17T08:52:09.840Z,4.80
2023-01-17T08:54:37.680Z,4.30
2023-01-17T08:57:05.644Z,4.93
2023-01-17T08:59:33.505Z,5.00
2023-01-17T09:02:06.815Z,4.47
2023-01-17T09:04:36.428Z,5.17
2023-01-17T09:07:08.445Z,4.20
2023-01-17T09:09:36.350Z,4.30
2023-01-17T09:12:04.421Z,4.67
2023-01-17T09:14:32.241Z,4.37
2023-01-17T09:17:00.680Z,3.77
2023-01-17T09:19:28.959Z,4.00
2023-01-17T09:21:58.643Z,4.00
2023-01-17T09:24:26.471Z,4.00
2023-01-17T09:26:54.490Z,3.73
2023-01-17T09:29:22.376Z,4.17
2023-01-17T09:31:50.348Z,3.67
2023-01-17T09:34:19.289Z,4.63
2023-01-17T09:36:47.244Z,3.90
2023-01-17T09:39:16.457Z,4.10
2023-01-17T09:41:50.089Z,4.10
2023-01-17T09:44:24.632Z,3.27
2023-01-17T09:46:54.532Z,3.70
2023-01-17T09:49:33.423Z,3.73
2023-01-17T09:52:01.841Z,3.20
2023-01-17T09:54:37.155Z,2.97
2023-01-17T09:57:14.787Z,2.80
2023-01-17T10:00:02.431Z,2.60
2023-01-17T10:02:48.312Z,3.10
2023-01-17T10:05:27.867Z,3.40
2023-01-17T10:08:05.064Z,3.87
2023-01-17T10:10:40.571Z,3.60
2023-01-17T10:13:18.914Z,3.43
2023-01-17T10:16:00.156Z,3.20
2023-01-17T10:19:00.869Z,2.77
2023-01-17T10:21:35.130Z,3.23
2023-01-17T10:24:16.981Z,3.10
2023-01-17T10:26:47.662Z,3.03
2023-01-17T10:29:20.190Z,2.63
2023-01-17T10:31:52.748Z,2.53
2023-01-17T10:34:23.971Z,2.40
2023-01-17T10:36:55.135Z,3.20
2023-01-17T10:39:24.864Z,3.27
2023-01-17T10:41:59.132Z,3.37
2023-01-17T10:44:31.818Z,3.47
2023-01-17T10:47:03.359Z,2.90
2023-01-17T10:49:31.730Z,2.67
2023-01-17T10:52:14.397Z,2.80
2023-01-17T10:54:54.239Z,2.47
2023-01-17T10:57:24.622Z,3.10
2023-01-17T10:59:53.087Z,3.20
2023-01-17T11:02:25.089Z,3.67
2023-01-17T11:04:55.072Z,3.03
2023-01-17T11:07:24.693Z,2.80
2023-01-17T11:09:54.182Z,2.80
2023-01-17T11:12:27.968Z,3.20
2023-01-17T11:15:02.228Z,3.50
2023-01-17T11:17:30.895Z,2.77
2023-01-17T11:20:20.077Z,3.37
2023-01-17T11:23:01.232Z,3.10
2023-01-17T11:25:30.788Z,5.00
2023-01-17T11:28:02.622Z,2.73
2023-01-17T11:30:30.740Z,2.67
2023-01-17T11:32:59.707Z,2.90
2023-01-17T11:35:29.217Z,2.90
2023-01-17T11:38:05.847Z,2.93
2023-01-17T11:40:38.205Z,2.30
2023-01-17T11:43:20.186Z,2.90
2023-01-17T11:45:48.794Z,2.60
2023-01-17T11:48:18.408Z,2.30
2023-01-17T11:50:49.008Z,2.33
2023-01-17T11:53:21.267Z,2.33
2023-01-17T11:56:02.764Z,2.00
2023-01-17T11:58:34.615Z,1.60
2023-01-17T12:01:14.729Z,1.63
2023-01-17T12:04:04.014Z,2.10
2023-01-17T12:06:47.931Z,1.60
2023-01-17T12:09:31.633Z,2.13
2023-01-17T12:12:25.468Z,1.60
2023-01-17T12:15:05.225Z,1.70
2023-01-17T12:17:46.770Z,1.60
2023-01-17T12:20:24.395Z,1.63
2023-01-17T12:23:14.108Z,1.50
2023-01-17T12:25:54.730Z,1.50
2023-01-17T12:28:38.028Z,1.73
2023-01-17T12:31:17.441Z,2.10
2023-01-17T12:33:48.496Z,2.00
2023-01-17T12:36:31.086Z,1.87
2023-01-17T12:39:00.723Z,2.20
2023-01-17T12:41:33.406Z,2.37
2023-01-17T12:44:02.833Z,1.60
2023-01-17T12:46:38.904Z,2.10
2023-01-17T12:49:22.860Z,1.97
2023-01-17T12:51:55.082Z,1.83
2023-01-17T12:54:29.234Z,2.00
2023-01-17T12:57:01.051Z,2.30
2023-01-17T12:59:34.041Z,2.10
2023-01-17T13:02:08.500Z,2.23
2023-01-17T13:04:57.355Z,1.90
2023-01-17T13:07:32.813Z,2.00
2023-01-17T13:10:04.898Z,1.80
2023-01-17T13:12:34.083Z,1.90
2023-01-17T13:15:07.251Z,1.70
2023-01-17T13:17:44.881Z,1.80
2023-01-17T13:20:19.415Z,1.43
2023-01-17T13:22:48.008Z,1.70
2023-01-17T13:25:29.821Z,1.80
2023-01-17T13:28:04.081Z,1.60
2023-01-17T13:30:54.098Z,1.60
2023-01-17T13:33:32.917Z,1.80
2023-01-17T13:36:11.852Z,1.70
2023-01-17T13:38:55.990Z,1.30
2023-01-17T13:41:37.997Z,1.50
2023-01-17T13:44:25.306Z,1.57
2023-01-17T13:46:57.753Z,1.63
2023-01-17T13:49:35.638Z,1.40
2023-01-17T13:52:07.553Z,1.57
2023-01-17T13:54:35.808Z,1.50
2023-01-17T13:57:40.837Z,1.73
2023-01-17T14:00:41.923Z,1.90
2023-01-17T14:03:11.607Z,1.40
2023-01-17T14:05:57.767Z,1.80
2023-01-17T14:08:27.296Z,2.23
2023-01-17T14:10:56.570Z,1.67
2023-01-17T14:13:35.025Z,1.20
2023-01-17T14:16:03.414Z,1.40
2023-01-17T14:18:34.610Z,1.67
2023-01-17T14:21:11.701Z,1.63
2023-01-17T14:23:59.943Z,1.70
2023-01-17T14:26:37.697Z,1.20
2023-01-17T14:29:38.843Z,1.47
2023-01-17T14:32:10.324Z,1.80
2023-01-17T14:34:38.254Z,1.50
2023-01-17T14:37:17.279Z,1.80
2023-01-17T14:39:46.520Z,2.00
2023-01-17T14:42:16.166Z,1.97
2023-01-17T14:44:47.661Z,1.80
2023-01-17T14:47:16.726Z,1.63
2023-01-17T14:49:46.054Z,1.87
2023-01-17T14:52:18.092Z,2.00
2023-01-17T14:54:50.064Z,1.50
2023-01-17T14:57:27.228Z,2.20
2023-01-17T15:00:11.068Z,2.13
2023-01-17T15:02:42.563Z,2.40
2023-01-17T15:05:15.449Z,1.90
2023-01-17T15:07:46.859Z,2.10
2023-01-17T15:10:16.339Z,1.77
2023-01-17T15:12:47.004Z,2.20
2023-01-17T15:15:32.206Z,1.83
2023-01-17T15:18:25.731Z,1.93
2023-01-17T15:20:57.004Z,1.60
2023-01-17T15:23:29.907Z,1.60
2023-01-17T15:25:58.004Z,1.77
2023-01-17T15:28:26.005Z,1.80
2023-01-17T15:31:09.644Z,1.80
2023-01-17T15:33:39.199Z,2.10
2023-01-17T15:36:09.291Z,2.40
2023-01-17T15:38:41.736Z,3.53
2023-01-17T15:41:12.772Z,3.00
2023-01-17T15:43:41.958Z,3.80
2023-01-17T15:46:23.013Z,4.47
2023-01-17T15:48:51.777Z,4.10
2023-01-17T15:51:33.460Z,3.80
2023-01-17T15:54:33.534Z,3.50
2023-01-17T15:57:18.004Z,2.90
2023-01-17T15:59:47.760Z,2.87
2023-01-17T16:02:29.978Z,2.63
2023-01-17T16:04:58.327Z,2.73
2023-01-17T16:07:34.063Z,2.20
2023-01-17T16:10:17.649Z,2.30
2023-01-17T16:12:45.551Z,2.20
2023-01-17T16:15:13.846Z,2.37
2023-01-17T16:17:42.938Z,2.50
2023-01-17T16:20:15.838Z,2.40
2023-01-17T16:22:44.249Z,2.63
2023-01-17T16:25:18.676Z,2.67
2023-01-17T16:27:46.930Z,2.70
2023-01-17T16:30:16.861Z,2.57
2023-01-17T16:32:46.912Z,2.70
2023-01-17T16:35:19.112Z,2.50
2023-01-17T16:37:50.353Z,2.80
2023-01-17T16:40:20.334Z,2.40
2023-01-17T16:42:48.543Z,2.27
2023-01-17T16:45:17.018Z,2.80
2023-01-17T16:47:46.457Z,2.80
2023-01-17T16:50:15.732Z,2.50
2023-01-17T16:52:43.830Z,2.47
2023-01-17T16:55:13.913Z,2.70
2023-01-17T16:57:43.623Z,2.40
2023-01-17T17:00:13.564Z,2.60
2023-01-17T17:02:41.701Z,2.17
2023-01-17T17:05:10.998Z,2.77
2023-01-17T17:07:42.817Z,2.20
2023-01-17T17:10:11.661Z,2.40
2023-01-17T17:12:39.551Z,2.63
2023-01-17T17:15:09.958Z,2.90
2023-01-17T17:17:38.382Z,2.43
2023-01-17T17:20:09.648Z,2.10
2023-01-17T17:22:37.690Z,2.37
2023-01-17T17:25:06.743Z,2.30
2023-01-17T17:27:34.577Z,2.17
2023-01-17T17:30:02.430Z,3.10
2023-01-17T17:32:34.703Z,2.67
2023-01-17T17:35:02.589Z,2.53
2023-01-17T17:37:30.438Z,2.80
2023-01-17T17:39:58.667Z,2.50
2023-01-17T17:42:26.629Z,3.17
2023-01-17T17:44:54.480Z,2.70
2023-01-17T17:47:23.971Z,3.03
2023-01-17T17:49:53.216Z,3.13
2023-01-17T17:52:21.115Z,2.70
2023-01-17T17:54:49.098Z,3.10
2023-01-17T17:57:16.923Z,3.07
2023-01-17T17:59:44.860Z,3.13
2023-01-17T18:02:13.021Z,3.77
2023-01-17T18:04:40.982Z,4.00
2023-01-17T18:07:13.195Z,3.63
2023-01-17T18:09:41.036Z,3.43
2023-01-17T18:12:09.116Z,4.30
2023-01-17T18:14:36.997Z,4.40
2023-01-17T18:17:04.940Z,4.10
2023-01-17T18:19:32.963Z,4.40
2023-01-17T18:22:00.783Z,3.80
2023-01-17T18:24:30.198Z,3.80
2023-01-17T18:26:58.860Z,3.87
2023-01-17T18:29:27.896Z,4.30
2023-01-17T18:31:56.760Z,4.07
2023-01-17T18:34:27.117Z,3.87
2023-01-17T18:36:55.652Z,3.67
2023-01-17T18:39:25.543Z,3.40
2023-01-17T18:41:55.217Z,7.00
2023-01-17T18:44:23.498Z,6.53
2023-01-17T18:46:51.705Z,4.67
2023-01-17T18:49:19.647Z,4.20
2023-01-17T18:51:50.562Z,3.50
2023-01-17T18:54:19.472Z,3.67
2023-01-17T18:56:47.313Z,4.67
2023-01-17T18:59:18.407Z,3.80
2023-01-17T19:01:47.182Z,3.37
2023-01-17T19:04:15.912Z,3.73
2023-01-17T19:06:47.692Z,3.03
2023-01-17T19:09:17.295Z,3.60
2023-01-17T19:11:47.760Z,3.90
2023-01-17T19:14:17.735Z,4.83
2023-01-17T19:16:45.721Z,4.43
2023-01-17T19:19:15.626Z,3.90
2023-01-17T19:21:43.684Z,3.93
2023-01-17T19:24:13.178Z,5.17
2023-01-17T19:26:44.032Z,3.87
2023-01-17T19:29:12.601Z,3.97
2023-01-17T19:31:43.651Z,4.27
2023-01-17T19:34:13.762Z,3.90
2023-01-17T19:36:41.889Z,3.60
2023-01-17T19:39:10.532Z,4.20
2023-01-17T19:41:43.227Z,4.63
2023-01-17T19:44:12.926Z,4.10
2023-01-17T19:46:43.872Z,4.40
2023-01-17T19:49:11.733Z,4.77
2023-01-17T19:51:40.541Z,4.70
2023-01-17T19:54:08.885Z,4.90
2023-01-17T19:56:36.809Z,4.70
2023-01-17T19:59:04.732Z,5.50
2023-01-17T20:01:33.675Z,4.97
2023-01-17T20:04:03.874Z,4.87
2023-01-17T20:06:33.807Z,4.97
2023-01-17T20:09:02.095Z,4.70
2023-01-17T20:11:30.120Z,4.97
2023-01-17T20:13:59.970Z,4.40
2023-01-17T20:16:30.147Z,5.03
2023-01-17T20:18:58.317Z,4.80
2023-01-17T20:21:29.180Z,4.90
2023-01-17T20:23:58.383Z,4.80
2023-01-17T20:26:34.381Z,4.87
2023-01-17T20:29:03.071Z,5.17
2023-01-17T20:31:32.215Z,5.83
2023-01-17T20:34:00.164Z,5.90
2023-01-17T20:36:30.038Z,5.50
2023-01-17T20:38:58.294Z,5.30
2023-01-17T20:41:27.402Z,4.63
2023-01-17T20:43:56.359Z,5.20
2023-01-17T20:46:26.928Z,4.20
2023-01-17T20:48:56.373Z,3.80
2023-01-17T20:51:25.455Z,4.50
2023-01-17T20:53:56.410Z,6.73
2023-01-17T20:56:24.818Z,7.00
2023-01-17T20:58:53.186Z,8.20
2023-01-17T21:01:21.604Z,5.83
2023-01-17T21:03:51.737Z,4.87
2023-01-17T21:06:21.573Z,3.90
2023-01-17T21:08:50.030Z,4.20
2023-01-17T21:11:20.857Z,4.10
2023-01-17T21:13:49.841Z,4.30
2023-01-17T21:16:20.278Z,3.67
2023-01-17T21:18:49.322Z,3.63
2023-01-17T21:21:18.707Z,4.60
2023-01-17T21:23:46.911Z,4.40
2023-01-17T21:26:16.083Z,3.90
2023-01-17T21:28:46.992Z,4.23
2023-01-17T21:31:23.025Z,4.37
2023-01-17T21:33:52.546Z,4.67
2023-01-17T21:36:21.335Z,4.60
2023-01-17T21:38:52.097Z,4.50
2023-01-17T21:41:23.563Z,4.80
2023-01-17T21:43:56.206Z,5.63
2023-01-17T21:46:24.694Z,5.17
2023-01-17T21:48:52.679Z,4.60
2023-01-17T21:51:21.810Z,5.13
2023-01-17T21:53:49.911Z,5.77
2023-01-17T21:56:35.887Z,5.00
2023-01-17T21:59:05.142Z,5.30
2023-01-17T22:01:34.480Z,4.90
2023-01-17T22:04:03.937Z,4.70
2023-01-17T22:06:34.319Z,4.60
2023-01-17T22:09:02.243Z,4.13
2023-01-17T22:11:31.072Z,4.70
2023-01-17T22:13:59.457Z,4.50
2023-01-17T22:16:29.188Z,4.33
2023-01-17T22:18:57.098Z,4.37
2023-01-17T22:21:26.182Z,4.40
2023-01-17T22:23:56.427Z,4.70
2023-01-17T22:26:27.056Z,4.80
2023-01-17T22:28:55.712Z,4.57
2023-01-17T22:31:26.003Z,4.80
2023-01-17T22:33:56.813Z,4.77
2023-01-17T22:36:26.407Z,3.93
2023-01-17T22:38:54.433Z,4.60
2023-01-17T22:41:24.273Z,4.50
2023-01-17T22:43:54.200Z,4.27
2023-01-17T22:46:23.771Z,4.60
2023-01-17T22:48:52.214Z,4.40
2023-01-17T22:51:23.183Z,4.67
2023-01-17T22:53:52.572Z,5.03
2023-01-17T22:56:22.484Z,4.60
2023-01-17T22:58:50.887Z,4.70
2023-01-17T23:01:20.447Z,4.87
2023-01-17T23:03:52.711Z,4.00
2023-01-17T23:06:23.256Z,4.77
2023-01-17T23:08:53.339Z,4.10
2023-01-17T23:11:42.728Z,4.67
2023-01-17T23:14:16.710Z,4.63
2023-01-17T23:17:04.424Z,4.43
2023-01-17T23:19:34.680Z,4.37
2023-01-17T23:22:17.492Z,5.00
2023-01-17T23:24:47.814Z,4.80
2023-01-17T23:27:34.771Z,5.30
2023-01-17T23:30:03.388Z,5.03
2023-01-17T23:32:31.997Z,5.17
2023-01-17T23:35:00.117Z,5.20
2023-01-17T23:37:44.225Z,4.40
2023-01-17T23:40:14.481Z,4.80
2023-01-17T23:43:00.487Z,4.43
2023-01-17T23:45:28.647Z,4.70
2023-01-17T23:47:56.667Z,4.50
2023-01-17T23:50:24.616Z,4.40
2023-01-17T23:52:53.830Z,4.17
2023-01-17T23:55:21.718Z,4.17
2023-01-17T23:57:50.129Z,4.13
